Dana, Kentucky
Current Conditions -  °F | °C
As of 8:15 PM on Saturday 25 Oct 2014 (Local Time) from KPBX Reporting Station
Clear Clear  
Wind Chill: 60°   Ceiling: Unl
Heat Index: 60°   Visibility: 10mi
Dew Point: 51°   Wind: 3mph
Humidity: 72%   Direction: 220°SW
Pressure: 29.98"   Gusts: NA
Location:  37.56°N, 82.69°W
Report Text: KPBX 260015Z AUTO 22003KT 10SM CLR 16/11 A2998 RMK AO2 T01560106
Loading
Personal Weather Stations






























Interactive Weather Map
Tropical Storm Tracking
New forecast layout! Learn more

10-Day Weather Forecast

Advertisements
Track Severe Weather on mobile